createdAt,value
2023-02-19T00:01:46.261Z,74.40
2023-02-19T00:04:22.323Z,74.50
2023-02-19T00:06:50.207Z,74.50
2023-02-19T00:09:19.393Z,74.60
2023-02-19T00:11:47.804Z,74.70
2023-02-19T00:14:18.012Z,74.90
2023-02-19T00:16:45.307Z,75.00
2023-02-19T00:19:15.556Z,75.20
2023-02-19T00:21:43.190Z,75.40
2023-02-19T00:24:12.596Z,75.40
2023-02-19T00:26:41.392Z,75.60
2023-02-19T00:29:13.032Z,75.60
2023-02-19T00:31:40.499Z,75.80
2023-02-19T00:34:09.450Z,75.90
2023-02-19T00:36:38.460Z,76.00
2023-02-19T00:39:08.019Z,76.10
2023-02-19T00:41:35.325Z,76.20
2023-02-19T00:44:05.767Z,76.30
2023-02-19T00:46:38.506Z,76.30
2023-02-19T00:49:07.770Z,76.30
2023-02-19T00:51:38.604Z,76.40
2023-02-19T00:54:06.837Z,76.70
2023-02-19T00:56:34.527Z,76.90
2023-02-19T00:59:01.821Z,77.20
2023-02-19T01:01:29.156Z,77.50
2023-02-19T01:03:56.642Z,77.70
2023-02-19T01:06:24.545Z,78.20
2023-02-19T01:08:51.951Z,78.40
2023-02-19T01:11:20.509Z,78.70
2023-02-19T01:13:48.179Z,78.90
2023-02-19T01:16:21.973Z,79.00
2023-02-19T01:18:49.368Z,79.30
2023-02-19T01:21:21.029Z,79.20
2023-02-19T01:23:50.083Z,79.40
2023-02-19T01:26:22.850Z,79.70
2023-02-19T01:28:50.410Z,79.90
2023-02-19T01:31:24.171Z,80.00
2023-02-19T01:33:57.572Z,80.10
2023-02-19T01:36:26.161Z,80.20
2023-02-19T01:38:53.602Z,80.30
2023-02-19T01:41:23.149Z,80.40
2023-02-19T01:43:59.941Z,80.50
2023-02-19T01:46:32.854Z,80.60
2023-02-19T01:49:10.969Z,81.30
2023-02-19T01:51:41.388Z,80.70
2023-02-19T01:54:11.545Z,80.80
2023-02-19T01:56:42.761Z,81.00
2023-02-19T01:59:10.699Z,81.10
2023-02-19T02:01:39.213Z,81.20
2023-02-19T02:04:11.000Z,81.30
2023-02-19T02:06:49.705Z,81.40
2023-02-19T02:09:41.463Z,81.60
2023-02-19T02:12:10.203Z,81.80
2023-02-19T02:14:40.894Z,81.90
2023-02-19T02:17:34.398Z,82.00
2023-02-19T02:20:22.788Z,82.20
2023-02-19T02:23:21.926Z,82.20
2023-02-19T02:26:11.456Z,82.30
2023-02-19T02:29:00.604Z,82.50
2023-02-19T02:31:42.247Z,82.50
2023-02-19T02:34:27.036Z,82.80
2023-02-19T02:36:56.864Z,83.00
2023-02-19T02:39:27.897Z,83.00
2023-02-19T02:42:19.031Z,83.10
2023-02-19T02:45:16.697Z,83.10
2023-02-19T02:47:56.854Z,83.10
2023-02-19T02:50:27.559Z,83.20
2023-02-19T02:53:20.642Z,83.30
2023-02-19T02:55:52.254Z,83.50
2023-02-19T02:58:21.473Z,83.80
2023-02-19T03:01:13.378Z,85.00
2023-02-19T03:03:44.398Z,84.90
2023-02-19T03:06:14.905Z,85.50
2023-02-19T03:08:48.167Z,85.90
2023-02-19T03:11:34.068Z,86.30
2023-02-19T03:14:29.483Z,86.50
2023-02-19T03:17:26.782Z,86.70
2023-02-19T03:19:58.291Z,86.80
2023-02-19T03:22:34.744Z,86.80
2023-02-19T03:25:38.277Z,87.20
2023-02-19T03:28:09.463Z,87.60
2023-02-19T03:30:41.654Z,87.80
2023-02-19T03:33:17.247Z,88.20
2023-02-19T03:35:51.157Z,88.60
2023-02-19T03:38:25.348Z,88.90
2023-02-19T03:41:07.261Z,89.00
2023-02-19T03:44:06.340Z,89.40
2023-02-19T03:46:42.028Z,89.60
2023-02-19T03:49:47.905Z,89.60
2023-02-19T03:52:20.515Z,89.80
2023-02-19T03:54:53.731Z,89.90
2023-02-19T03:57:31.294Z,90.00
2023-02-19T04:00:13.325Z,90.00
2023-02-19T04:03:09.817Z,90.00
2023-02-19T04:05:43.208Z,89.80
2023-02-19T04:08:15.913Z,89.50
2023-02-19T04:10:50.278Z,89.80
2023-02-19T04:13:27.205Z,89.00
2023-02-19T04:15:58.484Z,88.90
2023-02-19T04:18:31.550Z,88.80
2023-02-19T04:21:00.775Z,88.90
2023-02-19T04:23:31.641Z,88.90
2023-02-19T04:26:01.180Z,89.00
2023-02-19T04:28:29.370Z,89.00
2023-02-19T04:30:56.738Z,89.10
2023-02-19T04:33:24.044Z,89.20
2023-02-19T04:35:51.451Z,89.20
2023-02-19T04:38:19.152Z,89.40
2023-02-19T04:40:47.114Z,89.70
2023-02-19T04:43:14.662Z,89.90
2023-02-19T04:45:42.049Z,90.10
2023-02-19T04:48:09.598Z,90.10
2023-02-19T04:50:40.041Z,90.20
2023-02-19T04:53:07.775Z,90.40
2023-02-19T04:55:44.077Z,90.60
2023-02-19T04:58:11.302Z,90.80
2023-02-19T05:00:38.591Z,91.10
2023-02-19T05:03:05.906Z,91.20
2023-02-19T05:05:33.143Z,91.30
2023-02-19T05:08:00.443Z,91.40
2023-02-19T05:10:27.746Z,91.50
2023-02-19T05:12:57.751Z,91.50
2023-02-19T05:15:25.296Z,91.60
2023-02-19T05:17:52.542Z,91.50
2023-02-19T05:20:19.810Z,91.50
2023-02-19T05:22:47.075Z,91.40
2023-02-19T05:25:14.765Z,91.40
2023-02-19T05:27:42.024Z,91.30
2023-02-19T05:30:10.098Z,91.10
2023-02-19T05:32:38.672Z,91.20
2023-02-19T05:35:06.244Z,91.10
2023-02-19T05:37:33.483Z,91.20
2023-02-19T05:40:00.975Z,91.00
2023-02-19T05:42:28.253Z,91.00
2023-02-19T05:44:55.479Z,91.00
2023-02-19T05:47:22.881Z,90.90
2023-02-19T05:49:50.133Z,90.90
2023-02-19T05:52:17.412Z,90.90
2023-02-19T05:54:44.811Z,90.80
2023-02-19T05:57:12.412Z,90.70
2023-02-19T05:59:39.688Z,90.70
2023-02-19T06:02:07.273Z,90.70
2023-02-19T06:04:34.514Z,90.70
2023-02-19T06:07:01.799Z,90.70
2023-02-19T06:09:29.280Z,90.80
2023-02-19T06:11:57.429Z,90.80
2023-02-19T06:14:24.723Z,90.90
2023-02-19T06:16:51.984Z,90.90
2023-02-19T06:19:19.312Z,90.90
2023-02-19T06:21:46.723Z,91.00
2023-02-19T06:24:13.991Z,91.00
2023-02-19T06:26:41.306Z,91.00
2023-02-19T06:29:08.577Z,90.90
2023-02-19T06:31:36.148Z,90.90
2023-02-19T06:34:05.001Z,90.80
2023-02-19T06:36:32.483Z,90.70
2023-02-19T06:39:01.295Z,90.60
2023-02-19T06:41:28.653Z,90.40
2023-02-19T06:43:57.654Z,90.20
2023-02-19T06:46:25.132Z,90.10
2023-02-19T06:48:52.470Z,90.00
2023-02-19T06:51:23.869Z,90.00
2023-02-19T06:53:51.104Z,89.70
2023-02-19T06:56:23.342Z,89.40
2023-02-19T06:58:51.035Z,89.50
2023-02-19T07:01:18.361Z,89.20
2023-02-19T07:03:45.700Z,88.90
2023-02-19T07:06:12.976Z,88.70
2023-02-19T07:08:40.302Z,88.60
2023-02-19T07:11:07.708Z,88.10
2023-02-19T07:13:35.354Z,87.70
2023-02-19T07:16:08.707Z,87.60
2023-02-19T07:18:36.062Z,87.50
2023-02-19T07:21:08.722Z,87.50
2023-02-19T07:23:36.630Z,87.20
2023-02-19T07:26:05.068Z,86.80
2023-02-19T07:28:32.355Z,86.50
2023-02-19T07:31:04.282Z,86.40
2023-02-19T07:33:31.694Z,86.40
2023-02-19T07:35:59.141Z,85.90
2023-02-19T07:38:26.917Z,85.70
2023-02-19T07:40:56.310Z,85.60
2023-02-19T07:43:29.092Z,85.30
2023-02-19T07:45:56.476Z,85.30
2023-02-19T07:48:24.681Z,85.40
2023-02-19T07:50:59.468Z,85.50
2023-02-19T07:53:28.004Z,85.30
2023-02-19T07:56:03.217Z,85.10
2023-02-19T07:58:31.297Z,85.10
2023-02-19T08:01:06.209Z,85.20
2023-02-19T08:03:33.580Z,85.40
2023-02-19T08:06:00.985Z,85.20
2023-02-19T08:08:28.736Z,85.00
2023-02-19T08:11:17.421Z,84.80
2023-02-19T08:13:44.686Z,85.20
2023-02-19T08:16:24.176Z,85.20
2023-02-19T08:18:57.208Z,85.50
2023-02-19T08:21:24.534Z,85.60
2023-02-19T08:23:51.777Z,85.60
2023-02-19T08:26:19.261Z,85.40
2023-02-19T08:28:46.581Z,85.60
2023-02-19T08:31:14.410Z,85.20
2023-02-19T08:33:41.951Z,85.40
2023-02-19T08:36:10.960Z,85.40
2023-02-19T08:38:38.646Z,85.60
2023-02-19T08:41:07.819Z,85.60
2023-02-19T08:43:35.652Z,85.70
2023-02-19T08:46:03.569Z,85.50
2023-02-19T08:48:30.981Z,84.70
2023-02-19T08:51:04.047Z,84.90
2023-02-19T08:53:32.787Z,84.10
2023-02-19T08:56:08.652Z,84.20
2023-02-19T08:58:37.387Z,83.70
2023-02-19T09:01:21.065Z,83.40
2023-02-19T09:03:48.626Z,82.90
2023-02-19T09:06:18.791Z,82.90
2023-02-19T09:08:46.318Z,82.60
2023-02-19T09:11:14.048Z,82.60
2023-02-19T09:13:41.686Z,82.80
2023-02-19T09:16:09.722Z,82.00
2023-02-19T09:18:37.168Z,82.90
2023-02-19T09:21:06.005Z,83.90
2023-02-19T09:23:34.836Z,84.60
2023-02-19T09:26:08.513Z,85.40
2023-02-19T09:28:36.274Z,85.80
2023-02-19T09:31:12.769Z,86.90
2023-02-19T09:33:48.524Z,85.80
2023-02-19T09:36:18.635Z,85.60
2023-02-19T09:38:45.956Z,85.80
2023-02-19T09:41:46.344Z,85.90
2023-02-19T09:44:20.414Z,85.90
2023-02-19T09:46:50.667Z,86.30
2023-02-19T09:49:36.592Z,86.60
2023-02-19T09:52:17.026Z,87.10
2023-02-19T09:54:46.337Z,87.10
2023-02-19T09:57:19.025Z,87.20
2023-02-19T09:59:54.048Z,87.40
2023-02-19T10:02:24.307Z,87.20
2023-02-19T10:04:52.718Z,86.60
2023-02-19T10:07:25.779Z,85.90
2023-02-19T10:09:58.581Z,85.30
2023-02-19T10:12:28.918Z,85.70
2023-02-19T10:15:11.279Z,85.80
2023-02-19T10:17:38.763Z,84.80
2023-02-19T10:20:06.442Z,84.40
2023-02-19T10:22:37.886Z,84.10
2023-02-19T10:25:05.532Z,83.80
2023-02-19T10:27:33.051Z,83.00
2023-02-19T10:30:01.749Z,82.50
2023-02-19T10:32:31.651Z,82.00
2023-02-19T10:35:14.147Z,80.50
2023-02-19T10:37:47.014Z,79.80
2023-02-19T10:40:27.283Z,79.80
2023-02-19T10:43:01.384Z,78.90
2023-02-19T10:45:45.359Z,78.00
2023-02-19T10:48:24.773Z,76.40
2023-02-19T10:50:58.457Z,76.70
2023-02-19T10:53:46.941Z,76.70
2023-02-19T10:56:26.703Z,77.40
2023-02-19T10:58:54.232Z,75.60
2023-02-19T11:01:29.203Z,75.50
2023-02-19T11:04:17.805Z,75.00
2023-02-19T11:06:46.742Z,73.50
2023-02-19T11:09:45.453Z,73.40
2023-02-19T11:12:25.923Z,72.90
2023-02-19T11:14:53.358Z,72.60
2023-02-19T11:17:28.641Z,73.50
2023-02-19T11:19:58.756Z,73.00
2023-02-19T11:22:42.948Z,73.50
2023-02-19T11:25:10.439Z,73.50
2023-02-19T11:27:55.009Z,73.40
2023-02-19T11:30:35.907Z,72.10
2023-02-19T11:33:24.895Z,70.70
2023-02-19T11:35:59.058Z,70.60
2023-02-19T11:38:26.581Z,70.60
2023-02-19T11:41:15.787Z,69.80
2023-02-19T11:44:03.713Z,69.70
2023-02-19T11:46:37.145Z,70.10
2023-02-19T11:49:07.520Z,71.00
2023-02-19T11:51:59.139Z,70.30
2023-02-19T11:54:54.602Z,70.30
2023-02-19T11:57:40.153Z,69.50
2023-02-19T12:00:24.929Z,69.50
2023-02-19T12:03:16.084Z,68.70
2023-02-19T12:06:15.185Z,67.60
2023-02-19T12:09:15.559Z,68.80
2023-02-19T12:11:59.436Z,68.60
2023-02-19T12:14:42.074Z,68.20
2023-02-19T12:17:30.138Z,69.60
2023-02-19T12:20:31.780Z,71.90
2023-02-19T12:23:08.243Z,73.20
2023-02-19T12:26:23.244Z,74.00
2023-02-19T12:29:12.669Z,73.00
2023-02-19T12:32:01.012Z,72.90
2023-02-19T12:35:00.635Z,71.60
2023-02-19T12:37:46.542Z,71.20
2023-02-19T12:40:39.793Z,71.50
2023-02-19T12:43:13.750Z,69.80
2023-02-19T12:45:45.373Z,69.40
2023-02-19T12:48:20.292Z,69.70
2023-02-19T12:50:52.218Z,68.70
2023-02-19T12:53:40.235Z,67.80
2023-02-19T12:56:46.761Z,68.10
2023-02-19T12:59:32.845Z,68.40
2023-02-19T13:02:13.486Z,67.50
2023-02-19T13:04:58.613Z,67.70
2023-02-19T13:07:40.760Z,67.90
2023-02-19T13:10:24.429Z,68.80
2023-02-19T13:12:53.882Z,69.00
2023-02-19T13:15:33.575Z,69.40
2023-02-19T13:18:03.322Z,69.30
2023-02-19T13:20:37.619Z,69.10
2023-02-19T13:23:53.956Z,68.70
2023-02-19T13:26:43.305Z,67.90
2023-02-19T13:29:30.539Z,67.50
2023-02-19T13:32:25.567Z,67.00
2023-02-19T13:35:21.676Z,67.20
2023-02-19T13:37:50.211Z,67.10
2023-02-19T13:40:39.503Z,67.50
2023-02-19T13:43:23.554Z,67.60
2023-02-19T13:45:56.571Z,67.60
2023-02-19T13:48:23.914Z,67.50
2023-02-19T13:51:23.201Z,67.50
2023-02-19T13:53:57.729Z,67.30
2023-02-19T13:56:34.398Z,67.80
2023-02-19T13:59:11.146Z,67.20
2023-02-19T14:01:58.716Z,67.70
2023-02-19T14:04:53.476Z,68.20
2023-02-19T14:07:26.722Z,69.40
2023-02-19T14:09:54.707Z,70.30
2023-02-19T14:12:30.647Z,71.90
2023-02-19T14:15:18.130Z,71.70
2023-02-19T14:17:46.272Z,70.70
2023-02-19T14:20:16.646Z,70.50
2023-02-19T14:23:11.598Z,71.60
2023-02-19T14:25:44.156Z,73.70
2023-02-19T14:28:17.380Z,73.80
2023-02-19T14:30:50.316Z,73.20
2023-02-19T14:33:24.050Z,72.60
2023-02-19T14:36:00.367Z,72.50
2023-02-19T14:38:35.539Z,72.00
2023-02-19T14:41:03.874Z,72.50
2023-02-19T14:43:37.515Z,73.20
2023-02-19T14:46:16.418Z,72.90
2023-02-19T14:48:47.817Z,73.10
2023-02-19T14:51:24.830Z,73.90
2023-02-19T14:53:54.241Z,77.20
2023-02-19T14:56:28.919Z,77.70
2023-02-19T14:59:08.282Z,77.70
2023-02-19T15:01:35.837Z,78.10
2023-02-19T15:04:03.752Z,79.20
2023-02-19T15:06:36.957Z,81.10
2023-02-19T15:09:07.325Z,82.50
2023-02-19T15:11:35.816Z,82.80
2023-02-19T15:14:07.373Z,82.80
2023-02-19T15:16:36.191Z,83.60
2023-02-19T15:19:09.248Z,84.30
2023-02-19T15:21:43.752Z,85.40
2023-02-19T15:24:17.514Z,86.50
2023-02-19T15:26:52.366Z,87.90
2023-02-19T15:29:25.543Z,89.00
2023-02-19T15:31:55.828Z,90.00
2023-02-19T15:34:29.234Z,90.70
2023-02-19T15:37:04.665Z,91.20
2023-02-19T15:39:47.183Z,91.90
2023-02-19T15:42:30.286Z,92.60
2023-02-19T15:45:00.424Z,93.70
2023-02-19T15:47:45.477Z,94.90
2023-02-19T15:50:34.369Z,96.20
2023-02-19T15:53:16.112Z,97.20
2023-02-19T15:55:47.989Z,98.00
2023-02-19T15:58:32.232Z,98.70
2023-02-19T16:01:04.892Z,99.30
2023-02-19T16:03:32.740Z,99.60
2023-02-19T16:06:01.231Z,99.90
2023-02-19T16:08:34.514Z,99.90
2023-02-19T16:11:05.064Z,99.90
2023-02-19T16:13:34.289Z,99.90
2023-02-19T16:16:30.674Z,99.90
2023-02-19T16:18:58.045Z,99.90
2023-02-19T16:21:28.073Z,99.90
2023-02-19T16:24:06.749Z,99.90
2023-02-19T16:26:41.587Z,99.90
2023-02-19T16:29:33.163Z,99.90
2023-02-19T16:32:06.368Z,99.90
2023-02-19T16:34:42.767Z,99.90
2023-02-19T16:37:32.043Z,99.90
2023-02-19T16:40:45.577Z,99.90
2023-02-19T16:43:15.929Z,99.90
2023-02-19T16:45:45.244Z,99.90
2023-02-19T16:48:13.945Z,99.90
2023-02-19T16:50:46.194Z,99.90
2023-02-19T16:53:28.889Z,99.90
2023-02-19T16:55:56.467Z,99.90
2023-02-19T16:58:23.852Z,99.90
2023-02-19T17:00:51.331Z,99.90
2023-02-19T17:03:22.362Z,99.90
2023-02-19T17:05:50.677Z,99.90
2023-02-19T17:08:34.022Z,99.90
2023-02-19T17:11:03.521Z,99.90
2023-02-19T17:13:31.308Z,99.70
2023-02-19T17:15:59.703Z,98.80
2023-02-19T17:18:27.043Z,98.60
2023-02-19T17:21:05.148Z,98.30
2023-02-19T17:23:32.401Z,98.30
2023-02-19T17:25:59.801Z,98.20
2023-02-19T17:28:27.059Z,98.00
2023-02-19T17:30:54.391Z,97.90
2023-02-19T17:33:21.683Z,97.90
2023-02-19T17:35:49.058Z,98.10
2023-02-19T17:38:16.649Z,98.40
2023-02-19T17:40:45.208Z,98.70
2023-02-19T17:43:12.560Z,98.90
2023-02-19T17:45:40.169Z,99.20
2023-02-19T17:48:12.443Z,99.90
2023-02-19T17:50:40.562Z,99.90
2023-02-19T17:53:08.252Z,99.90
2023-02-19T17:55:35.576Z,99.90
2023-02-19T17:58:02.907Z,99.90
2023-02-19T18:00:32.172Z,99.90
2023-02-19T18:02:59.688Z,99.90
2023-02-19T18:05:26.954Z,99.90
2023-02-19T18:07:54.777Z,99.90
2023-02-19T18:10:23.514Z,99.90
2023-02-19T18:12:51.229Z,99.80
2023-02-19T18:15:22.528Z,99.60
2023-02-19T18:17:49.954Z,99.60
2023-02-19T18:20:20.353Z,99.60
2023-02-19T18:22:47.777Z,99.60
2023-02-19T18:25:17.012Z,99.60
2023-02-19T18:27:44.835Z,99.60
2023-02-19T18:30:15.481Z,99.50
2023-02-19T18:32:42.883Z,99.50
2023-02-19T18:35:10.763Z,99.40
2023-02-19T18:37:39.499Z,99.40
2023-02-19T18:40:07.561Z,99.40
2023-02-19T18:42:35.053Z,98.80
2023-02-19T18:45:02.386Z,98.70
2023-02-19T18:47:29.809Z,98.60
2023-02-19T18:49:58.974Z,98.50
2023-02-19T18:52:27.487Z,98.50
2023-02-19T18:54:55.839Z,98.50
2023-02-19T18:57:24.420Z,98.40
2023-02-19T18:59:52.246Z,98.30
2023-02-19T19:02:20.123Z,98.20
2023-02-19T19:04:52.820Z,98.10
2023-02-19T19:07:20.942Z,98.10
2023-02-19T19:09:48.686Z,98.10
2023-02-19T19:12:16.136Z,98.10
2023-02-19T19:14:44.586Z,98.10
2023-02-19T19:17:11.930Z,98.10
2023-02-19T19:19:40.468Z,98.10
2023-02-19T19:22:07.946Z,98.00
2023-02-19T19:24:35.213Z,98.00
2023-02-19T19:27:03.048Z,98.00
2023-02-19T19:29:30.551Z,98.10
2023-02-19T19:31:58.031Z,98.00
2023-02-19T19:34:25.376Z,97.80
2023-02-19T19:36:52.635Z,97.80
2023-02-19T19:39:20.104Z,97.70
2023-02-19T19:41:52.734Z,97.80
2023-02-19T19:44:19.993Z,97.70
2023-02-19T19:46:47.408Z,97.60
2023-02-19T19:49:21.378Z,97.60
2023-02-19T19:51:49.419Z,97.60
2023-02-19T19:54:17.001Z,97.50
2023-02-19T19:56:47.008Z,97.50
2023-02-19T19:59:15.832Z,97.30
2023-02-19T20:01:51.787Z,97.60
2023-02-19T20:04:21.219Z,97.30
2023-02-19T20:06:49.071Z,97.20
2023-02-19T20:09:17.585Z,97.10
2023-02-19T20:11:50.753Z,97.00
2023-02-19T20:14:19.900Z,97.10
2023-02-19T20:16:47.741Z,96.90
2023-02-19T20:19:15.955Z,96.80
2023-02-19T20:21:53.733Z,96.80
2023-02-19T20:24:24.210Z,96.80
2023-02-19T20:26:53.759Z,96.80
2023-02-19T20:29:21.135Z,96.80
2023-02-19T20:31:50.524Z,96.70
2023-02-19T20:34:18.449Z,96.70
2023-02-19T20:36:50.604Z,96.60
2023-02-19T20:39:20.307Z,96.00
2023-02-19T20:41:50.090Z,95.80
2023-02-19T20:44:18.984Z,95.60
2023-02-19T20:46:48.849Z,95.20
2023-02-19T20:49:18.628Z,95.20
2023-02-19T20:51:55.063Z,96.00
2023-02-19T20:54:25.248Z,96.00
2023-02-19T20:56:54.860Z,95.80
2023-02-19T20:59:25.022Z,95.70
2023-02-19T21:01:52.287Z,95.90
2023-02-19T21:04:20.014Z,96.10
2023-02-19T21:06:47.282Z,96.30
2023-02-19T21:09:14.730Z,96.50
2023-02-19T21:11:42.895Z,96.90
2023-02-19T21:14:10.971Z,97.20
2023-02-19T21:16:38.299Z,97.30
2023-02-19T21:19:06.123Z,97.70
2023-02-19T21:21:35.324Z,97.90
2023-02-19T21:24:03.377Z,97.80
2023-02-19T21:26:39.423Z,98.20
2023-02-19T21:29:08.103Z,98.10
2023-02-19T21:31:45.329Z,98.30
2023-02-19T21:34:15.478Z,98.30
2023-02-19T21:36:42.912Z,98.30
2023-02-19T21:39:13.020Z,98.30
2023-02-19T21:41:40.360Z,98.40
2023-02-19T21:44:07.847Z,98.50
2023-02-19T21:46:36.409Z,98.40
2023-02-19T21:49:04.479Z,98.40
2023-02-19T21:51:35.329Z,98.30
2023-02-19T21:54:03.541Z,98.30
2023-02-19T21:56:35.856Z,98.20
2023-02-19T21:59:04.122Z,98.40
2023-02-19T22:01:35.045Z,98.40
2023-02-19T22:04:02.371Z,98.70
2023-02-19T22:06:30.897Z,98.50
2023-02-19T22:08:59.614Z,98.10
2023-02-19T22:11:27.175Z,97.80
2023-02-19T22:13:54.590Z,97.20
2023-02-19T22:16:22.184Z,97.00
2023-02-19T22:18:51.957Z,96.90
2023-02-19T22:21:20.129Z,97.00
2023-02-19T22:23:49.809Z,97.00
2023-02-19T22:26:33.045Z,97.20
2023-02-19T22:29:02.677Z,97.00
2023-02-19T22:31:33.034Z,97.20
2023-02-19T22:34:00.385Z,96.80
2023-02-19T22:36:33.480Z,96.70
2023-02-19T22:39:01.592Z,97.10
2023-02-19T22:41:29.512Z,96.70
2023-02-19T22:43:59.564Z,96.90
2023-02-19T22:46:29.803Z,97.00
2023-02-19T22:48:58.804Z,97.10
2023-02-19T22:51:27.016Z,97.10
2023-02-19T22:53:56.743Z,97.00
2023-02-19T22:56:26.518Z,96.60
2023-02-19T22:58:55.299Z,96.70
2023-02-19T23:01:23.383Z,96.70
2023-02-19T23:03:56.772Z,96.50
2023-02-19T23:06:27.357Z,96.30
2023-02-19T23:08:56.840Z,96.10
2023-02-19T23:11:30.137Z,96.10
2023-02-19T23:13:58.454Z,95.90
2023-02-19T23:16:26.266Z,95.80
2023-02-19T23:18:53.600Z,95.50
2023-02-19T23:21:22.693Z,95.00
2023-02-19T23:23:50.172Z,95.00
2023-02-19T23:26:18.381Z,94.70
2023-02-19T23:28:46.785Z,94.80
2023-02-19T23:31:15.026Z,94.90
2023-02-19T23:33:43.339Z,94.90
2023-02-19T23:36:11.816Z,94.90
2023-02-19T23:38:39.737Z,95.10
2023-02-19T23:41:11.475Z,95.20
2023-02-19T23:43:39.409Z,95.10
2023-02-19T23:46:07.168Z,95.30
2023-02-19T23:48:34.700Z,95.30
2023-02-19T23:51:02.350Z,95.30
2023-02-19T23:53:29.749Z,95.70
2023-02-19T23:55:57.267Z,95.50
2023-02-19T23:58:24.526Z,95.20
